createdAt,value
2018-01-24T00:00:01.265Z,4.07
2018-01-24T00:01:00.263Z,4.02
2018-01-24T00:02:00.703Z,4
2018-01-24T00:02:59.955Z,4.07
2018-01-24T00:04:00.365Z,4.13
2018-01-24T00:05:00.600Z,4.06
2018-01-24T00:05:59.998Z,3.98
2018-01-24T00:06:59.868Z,4.05
2018-01-24T00:08:00.080Z,4.09
2018-01-24T00:09:00.616Z,4.1
2018-01-24T00:10:01.571Z,4.07
2018-01-24T00:11:01.190Z,4.06
2018-01-24T00:12:00.663Z,4.04
2018-01-24T00:13:00.842Z,4.02
2018-01-24T00:14:01.188Z,4.06
2018-01-24T00:15:02.272Z,4
2018-01-24T00:16:01.441Z,3.98
2018-01-24T00:16:59.997Z,4.11
2018-01-24T00:18:00.707Z,4.08
2018-01-24T00:19:02.031Z,3.96
2018-01-24T00:20:02.056Z,4.15
2018-01-24T00:21:00.721Z,4.15
2018-01-24T00:22:01.019Z,4.06
2018-01-24T00:23:02.069Z,4.12
2018-01-24T00:24:00.257Z,4.12
2018-01-24T00:25:00.046Z,4.11
2018-01-24T00:26:00.605Z,4.09
2018-01-24T00:27:01.163Z,4.11
2018-01-24T00:27:59.898Z,4.17
2018-01-24T00:28:59.964Z,4.15
2018-01-24T00:30:02.061Z,4.14
2018-01-24T00:31:01.156Z,4.09
2018-01-24T00:31:59.827Z,4.05
2018-01-24T00:33:00.227Z,4.05
2018-01-24T00:34:00.195Z,4.12
2018-01-24T00:34:59.959Z,4.1
2018-01-24T00:36:00.706Z,4.12
2018-01-24T00:37:02.141Z,4.13
2018-01-24T00:38:02.190Z,4.07
2018-01-24T00:39:00.508Z,4.09
2018-01-24T00:40:00.083Z,4.08
2018-01-24T00:41:00.688Z,4.04
2018-01-24T00:41:59.959Z,4.11
2018-01-24T00:43:00.731Z,4.11
2018-01-24T00:43:59.924Z,4.12
2018-01-24T00:45:00.067Z,4.13
2018-01-24T00:46:00.419Z,4.08
2018-01-24T00:47:00.938Z,4.13
2018-01-24T00:48:00.318Z,4.11
2018-01-24T00:49:00.681Z,4.05
2018-01-24T00:50:00.092Z,4.15
2018-01-24T00:51:00.087Z,4.16
2018-01-24T00:52:00.122Z,4.2
2018-01-24T00:53:00.144Z,4.18
2018-01-24T00:54:00.886Z,4.23
2018-01-24T00:55:01.178Z,4.24
2018-01-24T00:56:02.386Z,4.24
2018-01-24T00:57:00.509Z,4.16
2018-01-24T00:58:00.837Z,4.24
2018-01-24T00:58:59.962Z,4.19
2018-01-24T01:00:01.741Z,4.24
2018-01-24T01:01:00.602Z,4.17
2018-01-24T01:02:00.005Z,4.17
2018-01-24T01:02:59.988Z,4.21
2018-01-24T01:04:00.073Z,4.22
2018-01-24T01:05:00.997Z,4.14
2018-01-24T01:06:00.620Z,4.21
2018-01-24T01:07:00.022Z,4.26
2018-01-24T01:07:59.934Z,4.29
2018-01-24T01:09:01.230Z,4.19
2018-01-24T01:10:00.691Z,4.25
2018-01-24T01:11:00.034Z,4.2
2018-01-24T01:12:00.156Z,4.21
2018-01-24T01:13:00.607Z,4.21
2018-01-24T01:14:00.144Z,4.23
2018-01-24T01:15:02.079Z,4.3
2018-01-24T01:15:59.979Z,4.2
2018-01-24T01:17:01.472Z,4.27
2018-01-24T01:18:00.127Z,4.25
2018-01-24T01:19:01.614Z,4.3
2018-01-24T01:20:00.624Z,4.28
2018-01-24T01:21:00.008Z,4.27
2018-01-24T01:22:01.143Z,4.29
2018-01-24T01:23:00.056Z,4.31
2018-01-24T01:24:00.696Z,4.29
2018-01-24T01:25:01.752Z,4.3
2018-01-24T01:26:00.851Z,4.27
2018-01-24T01:27:00.045Z,4.3
2018-01-24T01:28:00.702Z,4.25
2018-01-24T01:29:00.683Z,4.29
2018-01-24T01:30:00.046Z,4.28
2018-01-24T01:30:59.981Z,4.26
2018-01-24T01:32:01.353Z,4.27
2018-01-24T01:33:00.012Z,4.34
2018-01-24T01:34:00.896Z,4.36
2018-01-24T01:35:00.951Z,4.32
2018-01-24T01:35:59.949Z,4.26
2018-01-24T01:37:01.465Z,4.35
2018-01-24T01:38:02.830Z,4.35
2018-01-24T01:39:00.296Z,4.39
2018-01-24T01:40:00.029Z,4.37
2018-01-24T01:41:00.094Z,4.39
2018-01-24T01:42:00.226Z,4.4
2018-01-24T01:43:00.871Z,4.42
2018-01-24T01:44:01.502Z,4.39
2018-01-24T01:45:00.204Z,4.42
2018-01-24T01:46:00.963Z,4.36
2018-01-24T01:47:01.212Z,4.35
2018-01-24T01:48:03.142Z,4.37
2018-01-24T01:49:00.368Z,4.39
2018-01-24T01:50:01.271Z,4.35
2018-01-24T01:51:00.899Z,4.37
2018-01-24T01:52:01.387Z,4.44
2018-01-24T01:53:00.119Z,4.38
2018-01-24T01:54:00.187Z,4.45
2018-01-24T01:55:00.194Z,4.39
2018-01-24T01:56:00.229Z,4.38
2018-01-24T01:57:00.199Z,4.36
2018-01-24T01:58:00.155Z,4.46
2018-01-24T01:59:00.103Z,4.42
2018-01-24T02:00:00.227Z,4.46
2018-01-24T02:01:00.466Z,4.39
2018-01-24T02:02:00.167Z,4.45
2018-01-24T02:03:00.171Z,4.41
2018-01-24T02:04:00.168Z,4.46
2018-01-24T02:05:00.099Z,4.48
2018-01-24T02:06:00.224Z,4.4
2018-01-24T02:07:00.187Z,4.46
2018-01-24T02:08:00.221Z,4.45
2018-01-24T02:09:00.188Z,4.44
2018-01-24T02:10:00.235Z,4.47
2018-01-24T02:11:00.276Z,4.43
2018-01-24T02:12:00.224Z,4.49
2018-01-24T02:13:00.265Z,4.48
2018-01-24T02:14:00.261Z,4.5
2018-01-24T02:15:00.843Z,4.52
2018-01-24T02:16:00.524Z,4.46
2018-01-24T02:17:00.219Z,4.54
2018-01-24T02:18:00.318Z,4.53
2018-01-24T02:19:00.207Z,4.52
2018-01-24T02:20:00.251Z,4.53
2018-01-24T02:21:00.229Z,4.54
2018-01-24T02:22:00.293Z,4.54
2018-01-24T02:23:00.266Z,4.53
2018-01-24T02:24:00.335Z,4.5
2018-01-24T02:25:00.237Z,4.52
2018-01-24T02:26:00.303Z,4.59
2018-01-24T02:27:00.356Z,4.6
2018-01-24T02:28:00.297Z,4.62
2018-01-24T02:29:00.137Z,4.6
2018-01-24T02:30:00.284Z,4.6
2018-01-24T02:31:00.240Z,4.63
2018-01-24T02:32:00.229Z,4.59
2018-01-24T02:33:00.935Z,4.63
2018-01-24T02:34:00.160Z,4.65
2018-01-24T02:35:00.218Z,4.62
2018-01-24T02:36:00.224Z,4.7
2018-01-24T02:37:00.243Z,4.69
2018-01-24T02:38:00.621Z,4.68
2018-01-24T02:39:00.346Z,4.69
2018-01-24T02:40:00.342Z,4.72
2018-01-24T02:41:00.276Z,4.73
2018-01-24T02:42:00.296Z,4.71
2018-01-24T02:43:00.309Z,4.76
2018-01-24T02:44:00.218Z,4.76
2018-01-24T02:45:00.223Z,4.77
2018-01-24T02:46:00.243Z,4.74
2018-01-24T02:47:00.327Z,4.75
2018-01-24T02:48:00.245Z,4.8
2018-01-24T02:49:00.290Z,4.81
2018-01-24T02:50:00.345Z,4.82
2018-01-24T02:51:00.252Z,4.84
2018-01-24T02:52:00.257Z,4.8
2018-01-24T02:53:00.235Z,4.82
2018-01-24T02:54:00.373Z,4.83
2018-01-24T02:55:00.308Z,4.85
2018-01-24T02:56:00.197Z,4.86
2018-01-24T02:57:00.350Z,4.86
2018-01-24T02:58:00.276Z,4.87
2018-01-24T02:59:00.302Z,4.87
2018-01-24T03:00:00.350Z,4.87
2018-01-24T03:01:00.280Z,4.91
2018-01-24T03:02:00.223Z,4.9
2018-01-24T03:03:00.345Z,4.9
2018-01-24T03:04:00.325Z,4.93
2018-01-24T03:05:00.236Z,4.91
2018-01-24T03:06:00.325Z,4.93
2018-01-24T03:07:00.357Z,4.96
2018-01-24T03:08:00.349Z,4.98
2018-01-24T03:09:00.202Z,5.01
2018-01-24T03:10:00.156Z,5.02
2018-01-24T03:11:00.218Z,5.04
2018-01-24T03:12:00.384Z,5.07
2018-01-24T03:13:00.443Z,5.03
2018-01-24T03:14:00.309Z,5.09
2018-01-24T03:15:00.310Z,5.06
2018-01-24T03:16:00.466Z,5.09
2018-01-24T03:17:00.309Z,5.12
2018-01-24T03:18:00.334Z,5.11
2018-01-24T03:19:00.369Z,5.16
2018-01-24T03:20:00.370Z,5.15
2018-01-24T03:21:00.312Z,5.17
2018-01-24T03:22:00.226Z,5.19
2018-01-24T03:23:00.276Z,5.21
2018-01-24T03:25:01.004Z,5.2
2018-01-24T03:26:00.251Z,5.23
2018-01-24T03:27:00.370Z,5.23
2018-01-24T03:28:00.265Z,5.26
2018-01-24T03:29:00.337Z,5.25
2018-01-24T03:30:00.404Z,5.27
2018-01-24T03:31:00.405Z,5.27
2018-01-24T03:32:00.290Z,5.29
2018-01-24T03:33:00.337Z,5.29
2018-01-24T03:34:00.397Z,5.31
2018-01-24T03:35:00.347Z,5.34
2018-01-24T03:36:00.310Z,5.33
2018-01-24T03:37:00.295Z,5.31
2018-01-24T03:38:00.275Z,5.33
2018-01-24T03:39:00.252Z,5.36
2018-01-24T03:40:00.212Z,5.43
2018-01-24T03:41:00.261Z,5.5
2018-01-24T03:42:00.298Z,5.53
2018-01-24T03:43:00.395Z,5.63
2018-01-24T03:44:00.489Z,5.67
2018-01-24T03:45:00.303Z,5.69
2018-01-24T03:46:00.218Z,5.79
2018-01-24T03:47:00.316Z,5.78
2018-01-24T03:48:00.318Z,5.7
2018-01-24T03:49:00.308Z,5.82
2018-01-24T03:50:00.315Z,5.76
2018-01-24T03:51:00.422Z,5.83
2018-01-24T03:52:00.452Z,5.79
2018-01-24T03:53:00.446Z,5.81
2018-01-24T03:54:00.310Z,5.83
2018-01-24T03:55:00.384Z,5.76
2018-01-24T03:56:00.399Z,5.78
2018-01-24T03:57:00.410Z,5.81
2018-01-24T03:58:00.287Z,5.75
2018-01-24T03:59:00.404Z,5.78
2018-01-24T04:00:00.421Z,5.77
2018-01-24T04:01:00.411Z,5.79
2018-01-24T04:02:00.406Z,5.76
2018-01-24T04:03:00.295Z,5.76
2018-01-24T04:04:00.394Z,5.73
2018-01-24T04:05:00.386Z,5.77
2018-01-24T04:06:00.538Z,5.78
2018-01-24T04:07:00.559Z,5.8
2018-01-24T04:08:00.380Z,5.82
2018-01-24T04:09:00.321Z,5.82
2018-01-24T04:10:00.451Z,5.84
2018-01-24T04:11:00.268Z,5.83
2018-01-24T04:12:00.433Z,5.87
2018-01-24T04:13:00.424Z,5.9
2018-01-24T04:14:00.392Z,5.85
2018-01-24T04:15:00.375Z,5.81
2018-01-24T04:16:00.438Z,5.87
2018-01-24T04:17:00.321Z,5.87
2018-01-24T04:18:00.301Z,5.84
2018-01-24T04:19:00.331Z,5.9
2018-01-24T04:20:00.343Z,5.9
2018-01-24T04:21:00.523Z,5.98
2018-01-24T04:22:00.445Z,6.02
2018-01-24T04:23:00.297Z,6.01
2018-01-24T04:24:00.382Z,5.95
2018-01-24T04:25:00.409Z,5.98
2018-01-24T04:26:00.450Z,6
2018-01-24T04:27:00.506Z,6.01
2018-01-24T04:28:00.306Z,5.95
2018-01-24T04:29:00.469Z,5.97
2018-01-24T04:30:00.410Z,6.02
2018-01-24T04:31:00.263Z,6.01
2018-01-24T04:32:00.420Z,6
2018-01-24T04:33:00.437Z,5.98
2018-01-24T04:34:00.386Z,5.99
2018-01-24T04:35:00.339Z,6.02
2018-01-24T04:36:00.406Z,6.01
2018-01-24T04:37:00.465Z,6.06
2018-01-24T04:38:00.385Z,6.04
2018-01-24T04:39:00.288Z,6.07
2018-01-24T04:40:00.292Z,6.04
2018-01-24T04:41:00.272Z,6.03
2018-01-24T04:42:00.558Z,6
2018-01-24T04:43:00.383Z,6.04
2018-01-24T04:44:00.404Z,6.05
2018-01-24T04:45:00.526Z,6.01
2018-01-24T04:46:00.383Z,6.01
2018-01-24T04:47:00.353Z,6.02
2018-01-24T04:48:00.427Z,6.04
2018-01-24T04:49:00.488Z,6.07
2018-01-24T04:50:00.478Z,6.04
2018-01-24T04:51:00.340Z,6.05
2018-01-24T04:52:00.460Z,6
2018-01-24T04:53:00.444Z,6.07
2018-01-24T04:54:00.358Z,6.02
2018-01-24T04:57:00.488Z,6.02
2018-01-24T04:58:00.620Z,5.99
2018-01-24T04:59:00.520Z,6
2018-01-24T05:00:00.591Z,6.01
2018-01-24T05:01:00.492Z,6.04
2018-01-24T05:02:00.456Z,6.05
2018-01-24T05:03:00.678Z,6.04
2018-01-24T05:04:00.458Z,6.02
2018-01-24T05:05:00.491Z,6.06
2018-01-24T05:06:00.521Z,6.09
2018-01-24T05:07:00.558Z,6.11
2018-01-24T05:08:00.580Z,6.1
2018-01-24T05:09:00.590Z,6.09
2018-01-24T05:10:00.458Z,6.06
2018-01-24T05:11:00.458Z,6.07
2018-01-24T05:12:00.655Z,6.12
2018-01-24T05:13:00.544Z,6.09
2018-01-24T05:14:00.665Z,6.04
2018-01-24T05:15:00.630Z,6.08
2018-01-24T05:16:00.617Z,6.04
2018-01-24T05:17:00.451Z,6.09
2018-01-24T05:18:00.483Z,6.08
2018-01-24T05:19:00.563Z,6.06
2018-01-24T05:20:00.528Z,6.09
2018-01-24T05:21:00.528Z,6.07
2018-01-24T05:22:00.569Z,6.13
2018-01-24T05:23:00.444Z,6.1
2018-01-24T05:24:00.574Z,6.1
2018-01-24T05:25:00.563Z,6.07
2018-01-24T05:26:00.431Z,6.1
2018-01-24T05:27:00.528Z,6.07
2018-01-24T05:28:00.539Z,6.1
2018-01-24T05:29:00.440Z,6.07
2018-01-24T05:30:00.428Z,6.07
2018-01-24T05:31:00.603Z,6.07
2018-01-24T05:32:00.595Z,6.11
2018-01-24T05:33:00.416Z,6.14
2018-01-24T05:34:00.640Z,6.11
2018-01-24T05:35:00.540Z,6.12
2018-01-24T05:36:01.342Z,6.11
2018-01-24T05:37:00.562Z,6.13
2018-01-24T05:38:00.427Z,6.06
2018-01-24T05:39:00.314Z,6.06
2018-01-24T05:40:00.414Z,6.08
2018-01-24T05:41:00.466Z,6.11
2018-01-24T05:42:00.493Z,6.12
2018-01-24T05:43:00.518Z,6.13
2018-01-24T05:44:00.479Z,6.15
2018-01-24T05:45:00.525Z,6.14
2018-01-24T05:46:00.471Z,6.15
2018-01-24T05:47:00.498Z,6.13
2018-01-24T05:48:00.570Z,6.11
2018-01-24T05:49:00.494Z,6.12
2018-01-24T05:50:00.586Z,6.1
2018-01-24T05:51:00.488Z,6.11
2018-01-24T05:52:00.471Z,6.11
2018-01-24T05:53:00.569Z,6.12
2018-01-24T05:54:00.609Z,6.13
2018-01-24T05:55:00.606Z,6.12
2018-01-24T05:56:00.449Z,6.13
2018-01-24T05:57:00.521Z,6.11
2018-01-24T05:58:00.663Z,6.12
2018-01-24T05:59:00.621Z,6.1
2018-01-24T06:00:00.847Z,6.13
2018-01-24T06:01:00.535Z,6.14
2018-01-24T06:02:00.590Z,6.11
2018-01-24T06:03:00.501Z,6.08
2018-01-24T06:04:00.570Z,6.12
2018-01-24T06:05:00.611Z,6.14
2018-01-24T06:06:00.513Z,6.14
2018-01-24T06:07:00.480Z,6.12
2018-01-24T06:08:00.569Z,6.11
2018-01-24T06:09:00.578Z,6.1
2018-01-24T06:10:00.647Z,6.11
2018-01-24T06:11:00.541Z,6.12
2018-01-24T06:12:01.284Z,6.1
2018-01-24T06:13:00.704Z,6.09
2018-01-24T06:14:00.742Z,6.07
2018-01-24T06:15:00.644Z,6.11
2018-01-24T06:16:00.758Z,6.07
2018-01-24T06:17:00.672Z,6.09
2018-01-24T06:18:00.601Z,6.1
2018-01-24T06:19:00.738Z,6.14
2018-01-24T06:20:00.574Z,6.13
2018-01-24T06:21:00.572Z,6.14
2018-01-24T06:22:00.685Z,6.1
2018-01-24T06:23:00.729Z,6.11
2018-01-24T06:24:00.603Z,6.11
2018-01-24T06:25:00.710Z,6.08
2018-01-24T06:26:00.627Z,6.1
2018-01-24T06:27:00.727Z,6.1
2018-01-24T06:28:00.641Z,6.07
2018-01-24T06:29:00.494Z,6.08
2018-01-24T06:30:00.645Z,6.09
2018-01-24T06:31:00.691Z,6.09
2018-01-24T06:32:00.632Z,6.07
2018-01-24T06:33:00.719Z,6.04
2018-01-24T06:34:00.595Z,6.08
2018-01-24T06:35:00.574Z,6.06
2018-01-24T06:36:00.878Z,6.05
2018-01-24T06:37:00.549Z,6.1
2018-01-24T06:38:00.570Z,6.09
2018-01-24T06:39:00.579Z,6.07
2018-01-24T06:40:00.705Z,6.12
2018-01-24T06:41:00.604Z,6.1
2018-01-24T06:42:00.826Z,6.11
2018-01-24T06:42:59.668Z,6.08
2018-01-24T06:44:00.064Z,6.08
2018-01-24T06:44:59.776Z,6.11
2018-01-24T06:45:59.705Z,6.12
2018-01-24T06:46:59.711Z,6.07
2018-01-24T06:47:59.703Z,6.06
2018-01-24T06:48:59.721Z,6.09
2018-01-24T06:49:59.774Z,6.05
2018-01-24T06:50:59.704Z,6.06
2018-01-24T06:51:59.709Z,6.16
2018-01-24T06:52:59.662Z,6.1
2018-01-24T06:53:59.641Z,6.05
2018-01-24T06:54:59.837Z,6.09
2018-01-24T06:55:59.579Z,6.04
2018-01-24T06:56:59.607Z,6.09
2018-01-24T06:57:59.838Z,6.1
2018-01-24T06:58:59.756Z,6.06
2018-01-24T07:00:00.737Z,6.08
2018-01-24T07:00:59.967Z,6.05
2018-01-24T07:01:59.724Z,6.1
2018-01-24T07:02:59.757Z,6.08
2018-01-24T07:03:59.917Z,6.04
2018-01-24T07:04:59.767Z,6.04
2018-01-24T07:05:59.743Z,6.09
2018-01-24T07:06:59.760Z,6.1
2018-01-24T07:07:59.623Z,6.11
2018-01-24T07:09:00.248Z,6.09
2018-01-24T07:09:59.820Z,6.11
2018-01-24T07:10:59.726Z,6.14
2018-01-24T07:11:59.754Z,6.08
2018-01-24T07:12:59.979Z,6.07
2018-01-24T07:13:59.866Z,6.11
2018-01-24T07:14:59.866Z,6.07
2018-01-24T07:15:59.838Z,6.09
2018-01-24T07:16:59.715Z,6.07
2018-01-24T07:17:59.756Z,6.1
2018-01-24T07:18:59.844Z,6.07
2018-01-24T07:19:59.961Z,6.08
2018-01-24T07:21:00.158Z,6.11
2018-01-24T07:21:59.683Z,6.09
2018-01-24T07:22:59.756Z,6.17
2018-01-24T07:23:59.720Z,6.06
2018-01-24T07:24:59.712Z,6.08
2018-01-24T07:25:59.876Z,6.12
2018-01-24T07:27:00.190Z,6.08
2018-01-24T07:27:59.676Z,6.11
2018-01-24T07:28:59.732Z,6.12
2018-01-24T07:29:59.749Z,6.14
2018-01-24T07:30:59.869Z,6.12
2018-01-24T07:31:59.831Z,6.16
2018-01-24T07:32:59.848Z,6.11
2018-01-24T07:33:59.749Z,6.19
2018-01-24T07:35:00.453Z,6.14
2018-01-24T07:35:59.956Z,6.1
2018-01-24T07:37:00.017Z,6.12
2018-01-24T07:37:59.768Z,6.11
2018-01-24T07:39:00.502Z,6.13
2018-01-24T07:39:59.841Z,6.12
2018-01-24T07:41:01.017Z,6.14
2018-01-24T07:42:00.316Z,6.14
2018-01-24T07:42:59.992Z,6.17
2018-01-24T07:44:01.641Z,6.15
2018-01-24T07:45:00.609Z,6.15
2018-01-24T07:46:01.186Z,6.16
2018-01-24T07:47:06.642Z,6.16
2018-01-24T07:47:59.793Z,6.13
2018-01-24T07:49:00.589Z,6.17
2018-01-24T07:50:01.689Z,6.15
2018-01-24T07:51:00.891Z,6.14
2018-01-24T07:52:03.396Z,6.15
2018-01-24T07:53:02.285Z,6.14
2018-01-24T07:53:59.934Z,6.12
2018-01-24T07:55:03.376Z,6.18
2018-01-24T07:56:00.617Z,6.17
2018-01-24T07:56:59.845Z,6.16
2018-01-24T07:58:01.528Z,6.16
2018-01-24T07:59:00.593Z,6.18
2018-01-24T08:00:00.423Z,6.24
2018-01-24T08:00:59.983Z,6.24
2018-01-24T08:02:00.780Z,6.22
2018-01-24T08:03:01.409Z,6.21
2018-01-24T08:04:00.554Z,6.25
2018-01-24T08:05:01.254Z,6.23
2018-01-24T08:06:01.705Z,6.24
2018-01-24T08:06:59.956Z,6.27
2018-01-24T08:08:00.545Z,6.27
2018-01-24T08:08:59.847Z,6.27
2018-01-24T08:09:59.860Z,6.25
2018-01-24T08:10:59.908Z,6.3
2018-01-24T08:11:59.926Z,6.34
2018-01-24T08:12:59.903Z,6.32
2018-01-24T08:14:00.212Z,6.36
2018-01-24T08:14:59.833Z,6.38
2018-01-24T08:15:59.880Z,6.37
2018-01-24T08:16:59.844Z,6.44
2018-01-24T08:17:59.971Z,6.39
2018-01-24T08:18:59.727Z,6.45
2018-01-24T08:19:59.911Z,6.5
2018-01-24T08:21:00.008Z,6.46
2018-01-24T08:21:59.789Z,6.51
2018-01-24T08:22:59.855Z,6.46
2018-01-24T08:23:59.912Z,6.48
2018-01-24T08:24:59.991Z,6.46
2018-01-24T08:26:00.005Z,6.49
2018-01-24T08:27:00.071Z,6.47
2018-01-24T08:27:59.990Z,6.48
2018-01-24T08:29:00.111Z,6.52
2018-01-24T08:29:59.810Z,6.56
2018-01-24T08:30:59.835Z,6.55
2018-01-24T08:31:59.993Z,6.54
2018-01-24T08:32:59.938Z,6.54
2018-01-24T08:34:00.132Z,6.59
2018-01-24T08:34:59.960Z,6.59
2018-01-24T08:35:59.931Z,6.65
2018-01-24T08:36:59.959Z,6.65
2018-01-24T08:38:00.084Z,6.62
2018-01-24T08:39:00.640Z,6.61
2018-01-24T08:39:59.901Z,6.67
2018-01-24T08:40:59.898Z,6.69
2018-01-24T08:41:59.934Z,6.76
2018-01-24T08:43:00.007Z,6.68
2018-01-24T08:43:59.847Z,6.7
2018-01-24T08:44:59.988Z,6.75
2018-01-24T08:45:59.967Z,6.77
2018-01-24T08:46:59.877Z,6.82
2018-01-24T08:48:00.071Z,6.84
2018-01-24T08:48:59.991Z,6.81
2018-01-24T08:50:00.055Z,6.85
2018-01-24T08:51:00.036Z,6.82
2018-01-24T08:51:59.920Z,6.81
2018-01-24T08:52:59.931Z,6.86
2018-01-24T08:53:59.954Z,6.83
2018-01-24T08:54:59.985Z,6.81
2018-01-24T08:56:00.219Z,6.86
2018-01-24T08:56:59.893Z,6.94
2018-01-24T08:57:59.885Z,6.9
2018-01-24T08:59:00.031Z,6.91
2018-01-24T08:59:59.937Z,6.96
2018-01-24T09:01:00.152Z,6.99
2018-01-24T09:02:00.094Z,6.95
2018-01-24T09:02:59.916Z,6.96
2018-01-24T09:03:59.916Z,6.92
2018-01-24T09:04:59.906Z,6.96
2018-01-24T09:05:59.956Z,6.97
2018-01-24T09:07:00.036Z,6.99
2018-01-24T09:07:59.979Z,7.04
2018-01-24T09:08:59.921Z,7.01
2018-01-24T09:09:59.992Z,6.93
2018-01-24T09:10:59.936Z,6.96
2018-01-24T09:12:00.087Z,6.99
2018-01-24T09:13:00.959Z,6.99
2018-01-24T09:14:00.163Z,6.95
2018-01-24T09:15:00.220Z,6.99
2018-01-24T09:16:00.083Z,7.02
2018-01-24T09:17:00.044Z,6.99
2018-01-24T09:17:59.960Z,6.98
2018-01-24T09:19:00.067Z,7.02
2018-01-24T09:20:00.061Z,7.02
2018-01-24T09:20:59.992Z,7.07
2018-01-24T09:22:00.000Z,7.12
2018-01-24T09:23:00.085Z,7.12
2018-01-24T09:24:00.109Z,7.12
2018-01-24T09:24:59.968Z,7.2
2018-01-24T09:26:00.079Z,7.23
2018-01-24T09:27:00.040Z,7.18
2018-01-24T09:28:00.074Z,7.2
2018-01-24T09:29:00.101Z,7.25
2018-01-24T09:30:00.051Z,7.29
2018-01-24T09:31:00.113Z,7.29
2018-01-24T09:32:00.851Z,7.25
2018-01-24T09:33:01.098Z,7.3
2018-01-24T09:34:01.324Z,7.26
2018-01-24T09:35:00.621Z,7.3
2018-01-24T09:36:00.827Z,7.29
2018-01-24T09:37:01.114Z,7.33
2018-01-24T09:38:01.381Z,7.36
2018-01-24T09:39:00.487Z,7.32
2018-01-24T09:40:01.737Z,7.36
2018-01-24T09:41:01.433Z,7.39
2018-01-24T09:42:00.561Z,7.34
2018-01-24T09:43:00.754Z,7.36
2018-01-24T09:44:00.123Z,7.44
2018-01-24T09:45:01.119Z,7.47
2018-01-24T09:46:00.647Z,7.5
2018-01-24T09:47:00.811Z,7.5
2018-01-24T09:48:01.190Z,7.52
2018-01-24T09:49:00.260Z,7.51
2018-01-24T09:50:01.083Z,7.49
2018-01-24T09:51:01.256Z,7.46
2018-01-24T09:52:01.456Z,7.51
2018-01-24T09:53:00.630Z,7.52
2018-01-24T09:54:00.735Z,7.53
2018-01-24T09:55:01.130Z,7.53
2018-01-24T09:56:00.911Z,7.57
2018-01-24T09:57:01.224Z,7.63
2018-01-24T09:58:01.413Z,7.63
2018-01-24T09:59:00.146Z,7.55
2018-01-24T10:00:00.945Z,7.53
2018-01-24T10:01:01.191Z,7.59
2018-01-24T10:02:01.383Z,7.56
2018-01-24T10:03:01.442Z,7.58
2018-01-24T10:04:00.888Z,7.6
2018-01-24T10:05:00.109Z,7.58
2018-01-24T10:06:00.839Z,7.58
2018-01-24T10:07:01.187Z,7.59
2018-01-24T10:08:00.805Z,7.61
2018-01-24T10:09:01.167Z,7.6
2018-01-24T10:10:00.083Z,7.61
2018-01-24T10:11:00.944Z,7.64
2018-01-24T10:12:01.028Z,7.58
2018-01-24T10:13:01.183Z,7.56
2018-01-24T10:14:01.585Z,7.59
2018-01-24T10:15:00.889Z,7.6
2018-01-24T10:16:01.173Z,7.62
2018-01-24T10:17:00.130Z,7.63
2018-01-24T10:18:02.121Z,7.61
2018-01-24T10:19:01.507Z,7.6
2018-01-24T10:20:00.896Z,7.65
2018-01-24T10:21:00.910Z,7.63
2018-01-24T10:22:01.228Z,7.62
2018-01-24T10:23:01.362Z,7.57
2018-01-24T10:24:00.742Z,7.53
2018-01-24T10:25:00.775Z,7.54
2018-01-24T10:26:00.304Z,7.53
2018-01-24T10:27:01.431Z,7.59
2018-01-24T10:28:00.618Z,7.56
2018-01-24T10:29:00.763Z,7.62
2018-01-24T10:30:00.142Z,7.61
2018-01-24T10:31:00.142Z,7.6
2018-01-24T10:32:00.952Z,7.55
2018-01-24T10:33:01.364Z,7.52
2018-01-24T10:34:01.223Z,7.58
2018-01-24T10:35:01.344Z,7.51
2018-01-24T10:36:02.024Z,7.63
2018-01-24T10:37:01.086Z,7.62
2018-01-24T10:38:00.993Z,7.65
2018-01-24T10:39:01.212Z,7.66
2018-01-24T10:40:01.314Z,7.68
2018-01-24T10:41:01.181Z,7.65
2018-01-24T10:42:01.072Z,7.66
2018-01-24T10:43:01.164Z,7.65
2018-01-24T10:43:59.992Z,7.76
2018-01-24T10:45:01.226Z,7.7
2018-01-24T10:46:00.944Z,7.79
2018-01-24T10:47:00.686Z,7.81
2018-01-24T10:48:01.195Z,7.73
2018-01-24T10:49:01.043Z,7.68
2018-01-24T10:50:01.312Z,7.68
2018-01-24T10:51:01.107Z,7.67
2018-01-24T10:52:00.231Z,7.71
2018-01-24T10:53:01.028Z,7.77
2018-01-24T10:54:00.796Z,7.69
2018-01-24T10:55:00.948Z,7.67
2018-01-24T10:56:00.997Z,7.75
2018-01-24T10:57:01.136Z,7.76
2018-01-24T10:58:00.904Z,7.8
2018-01-24T10:59:00.904Z,7.71
2018-01-24T11:00:00.972Z,7.78
2018-01-24T11:01:01.288Z,7.84
2018-01-24T11:02:01.191Z,7.83
2018-01-24T11:03:01.212Z,7.81
2018-01-24T11:04:00.177Z,7.85
2018-01-24T11:05:00.952Z,7.84
2018-01-24T11:06:00.906Z,7.94
2018-01-24T11:07:01.259Z,7.86
2018-01-24T11:08:01.284Z,7.89
2018-01-24T11:09:00.986Z,7.75
2018-01-24T11:10:01.324Z,7.89
2018-01-24T11:11:01.696Z,7.89
2018-01-24T11:12:01.076Z,7.66
2018-01-24T11:13:00.326Z,7.76
2018-01-24T11:14:00.845Z,7.77
2018-01-24T11:15:01.054Z,7.85
2018-01-24T11:16:01.250Z,7.9
2018-01-24T11:17:01.127Z,7.83
2018-01-24T11:18:01.216Z,8.02
2018-01-24T11:19:01.350Z,7.94
2018-01-24T11:20:01.285Z,7.95
2018-01-24T11:21:01.091Z,7.87
2018-01-24T11:22:01.168Z,7.97
2018-01-24T11:23:01.875Z,8.01
2018-01-24T11:24:01.161Z,7.86
2018-01-24T11:25:01.057Z,7.9
2018-01-24T11:26:00.985Z,7.88
2018-01-24T11:27:01.178Z,7.9
2018-01-24T11:28:01.296Z,7.73
2018-01-24T11:29:01.051Z,7.84
2018-01-24T11:30:00.607Z,7.82
2018-01-24T11:31:00.109Z,7.92
2018-01-24T11:32:00.150Z,8.05
2018-01-24T11:33:00.041Z,7.79
2018-01-24T11:34:00.048Z,7.92
2018-01-24T11:35:00.086Z,7.92
2018-01-24T11:36:00.224Z,7.98
2018-01-24T11:37:00.092Z,8.03
2018-01-24T11:38:00.183Z,7.87
2018-01-24T11:39:00.007Z,7.77
2018-01-24T11:40:00.141Z,7.84
2018-01-24T11:41:00.105Z,7.92
2018-01-24T11:42:00.033Z,7.88
2018-01-24T11:43:00.173Z,7.89
2018-01-24T11:44:00.283Z,7.92
2018-01-24T11:45:00.116Z,7.86
2018-01-24T11:46:00.141Z,7.98
2018-01-24T11:47:00.032Z,7.96
2018-01-24T11:47:59.986Z,7.89
2018-01-24T11:49:00.292Z,8.04
2018-01-24T11:50:00.101Z,7.92
2018-01-24T11:51:00.295Z,7.93
2018-01-24T11:52:00.211Z,7.86
2018-01-24T11:53:00.280Z,7.94
2018-01-24T11:54:00.195Z,7.7
2018-01-24T11:55:00.805Z,7.93
2018-01-24T11:56:00.256Z,7.92
2018-01-24T11:57:00.161Z,7.75
2018-01-24T11:58:00.034Z,7.76
2018-01-24T11:59:00.079Z,7.93
2018-01-24T12:00:00.077Z,7.92
2018-01-24T12:01:00.159Z,7.84
2018-01-24T12:01:59.975Z,7.72
2018-01-24T12:03:00.091Z,7.71
2018-01-24T12:04:00.221Z,7.62
2018-01-24T12:05:00.049Z,7.69
2018-01-24T12:06:00.064Z,7.68
2018-01-24T12:06:59.999Z,7.72
2018-01-24T12:08:00.135Z,7.81
2018-01-24T12:09:00.187Z,7.78
2018-01-24T12:10:00.248Z,7.9
2018-01-24T12:11:00.077Z,7.85
2018-01-24T12:12:00.072Z,7.86
2018-01-24T12:13:00.157Z,7.96
2018-01-24T12:14:00.276Z,8.01
2018-01-24T12:15:00.235Z,7.85
2018-01-24T12:16:00.141Z,7.8
2018-01-24T12:17:00.253Z,7.68
2018-01-24T12:18:00.241Z,7.77
2018-01-24T12:19:00.480Z,7.83
2018-01-24T12:20:00.291Z,7.65
2018-01-24T12:21:00.207Z,7.7
2018-01-24T12:22:00.110Z,7.69
2018-01-24T12:23:00.217Z,7.79
2018-01-24T12:24:00.160Z,7.79
2018-01-24T12:25:00.321Z,7.7
2018-01-24T12:26:00.165Z,7.71
2018-01-24T12:27:00.175Z,7.73
2018-01-24T12:28:00.268Z,7.67
2018-01-24T12:29:00.319Z,7.73
2018-01-24T12:30:00.250Z,7.73
2018-01-24T12:31:00.242Z,7.82
2018-01-24T12:32:00.146Z,7.88
2018-01-24T12:33:00.301Z,7.83
2018-01-24T12:34:00.224Z,7.96
2018-01-24T12:35:00.273Z,7.91
2018-01-24T12:36:00.122Z,7.86
2018-01-24T12:37:00.118Z,7.89
2018-01-24T12:38:00.287Z,7.77
2018-01-24T12:39:00.215Z,7.74
2018-01-24T12:40:00.194Z,7.79
2018-01-24T12:41:00.160Z,7.79
2018-01-24T12:42:00.071Z,7.83
2018-01-24T12:43:00.163Z,7.79
2018-01-24T12:44:00.277Z,7.8
2018-01-24T12:45:00.528Z,7.89
2018-01-24T12:46:00.225Z,7.86
2018-01-24T12:47:00.241Z,7.86
2018-01-24T12:48:00.177Z,7.77
2018-01-24T12:49:00.209Z,7.76
2018-01-24T12:50:00.480Z,7.87
2018-01-24T12:51:00.136Z,7.73
2018-01-24T12:52:00.155Z,7.56
2018-01-24T12:53:00.240Z,7.64
2018-01-24T12:54:00.075Z,7.76
2018-01-24T12:55:00.255Z,7.68
2018-01-24T12:56:00.365Z,7.72
2018-01-24T12:57:00.205Z,7.74
2018-01-24T12:58:00.236Z,7.88
2018-01-24T12:59:00.310Z,7.67
2018-01-24T13:00:00.192Z,7.78
2018-01-24T13:01:00.248Z,7.8
2018-01-24T13:02:00.293Z,7.78
2018-01-24T13:03:00.290Z,7.8
2018-01-24T13:04:00.072Z,7.72
2018-01-24T13:05:00.305Z,7.85
2018-01-24T13:06:00.195Z,7.76
2018-01-24T13:07:00.340Z,7.91
2018-01-24T13:08:00.246Z,7.82
2018-01-24T13:09:00.228Z,7.7
2018-01-24T13:10:00.326Z,7.57
2018-01-24T13:11:00.299Z,7.6
2018-01-24T13:12:00.271Z,7.65
2018-01-24T13:13:00.298Z,7.69
2018-01-24T13:14:00.425Z,7.67
2018-01-24T13:15:00.353Z,7.68
2018-01-24T13:16:00.300Z,7.56
2018-01-24T13:17:00.334Z,7.6
2018-01-24T13:18:00.259Z,7.64
2018-01-24T13:19:00.356Z,7.65
2018-01-24T13:20:00.369Z,7.58
2018-01-24T13:21:00.431Z,7.73
2018-01-24T13:22:00.211Z,7.6
2018-01-24T13:23:00.287Z,7.71
2018-01-24T13:24:00.272Z,7.64